createdAt,value
2018-10-17T00:01:24.423Z,13.87
2018-10-17T00:03:53.410Z,13.93
2018-10-17T00:06:22.258Z,14.30
2018-10-17T00:08:51.260Z,13.77
2018-10-17T00:11:20.258Z,14.77
2018-10-17T00:13:48.984Z,15.03
2018-10-17T00:16:17.741Z,14.17
2018-10-17T00:18:46.419Z,14.43
2018-10-17T00:21:15.127Z,13.67
2018-10-17T00:23:44.077Z,14.33
2018-10-17T00:26:13.205Z,13.47
2018-10-17T00:28:42.084Z,14.93
2018-10-17T00:31:11.028Z,14.33
2018-10-17T00:33:39.738Z,13.90
2018-10-17T00:36:08.501Z,14.40
2018-10-17T00:38:37.302Z,13.73
2018-10-17T00:41:06.468Z,14.70
2018-10-17T00:43:35.420Z,16.27
2018-10-17T00:46:04.463Z,15.83
2018-10-17T00:48:33.222Z,15.27
2018-10-17T00:51:02.188Z,14.40
2018-10-17T00:53:30.929Z,15.43
2018-10-17T00:55:59.653Z,14.70
2018-10-17T00:58:28.443Z,14.63
2018-10-17T01:00:57.456Z,14.07
2018-10-17T01:03:26.247Z,14.50
2018-10-17T01:05:55.223Z,15.67
2018-10-17T01:08:24.139Z,16.33
2018-10-17T01:10:53.057Z,16.50
2018-10-17T01:13:21.726Z,15.37
2018-10-17T01:15:50.676Z,16.53
2018-10-17T01:18:19.724Z,16.33
2018-10-17T01:20:48.511Z,16.40
2018-10-17T01:23:17.588Z,16.30
2018-10-17T01:25:46.394Z,16.53
2018-10-17T01:28:15.088Z,16.33
2018-10-17T01:30:43.890Z,16.40
2018-10-17T01:33:12.786Z,16.13
2018-10-17T01:35:41.676Z,17.83
2018-10-17T01:38:10.888Z,16.83
2018-10-17T01:40:39.684Z,16.63
2018-10-17T01:43:08.680Z,16.30
2018-10-17T01:45:37.619Z,15.80
2018-10-17T01:48:06.832Z,15.47
2018-10-17T01:50:35.709Z,15.17
2018-10-17T01:53:04.623Z,16.77
2018-10-17T01:55:33.410Z,14.10
2018-10-17T01:58:02.178Z,14.37
2018-10-17T02:00:30.968Z,14.57
2018-10-17T02:02:59.893Z,14.67
2018-10-17T02:05:28.675Z,13.73
2018-10-17T02:07:57.606Z,13.80
2018-10-17T02:10:26.538Z,13.07
2018-10-17T02:12:55.709Z,14.07
2018-10-17T02:15:24.590Z,12.57
2018-10-17T02:17:53.910Z,12.40
2018-10-17T02:20:22.642Z,13.50
2018-10-17T02:22:51.614Z,14.10
2018-10-17T02:25:20.464Z,13.73
2018-10-17T02:27:49.595Z,14.57
2018-10-17T02:30:18.486Z,13.17
2018-10-17T02:32:47.504Z,13.80
2018-10-17T02:35:17.397Z,13.77
2018-10-17T02:37:46.752Z,13.63
2018-10-17T02:40:15.811Z,15.23
2018-10-17T02:42:44.636Z,14.77
2018-10-17T02:45:14.108Z,15.80
2018-10-17T02:47:43.180Z,15.07
2018-10-17T02:50:12.534Z,15.47
2018-10-17T02:52:42.096Z,16.80
2018-10-17T02:55:10.950Z,16.27
2018-10-17T02:57:40.025Z,16.20
2018-10-17T03:00:09.612Z,16.93
2018-10-17T03:02:38.567Z,17.67
2018-10-17T03:05:07.764Z,15.60
2018-10-17T03:07:36.519Z,14.33
2018-10-17T03:10:05.477Z,12.93
2018-10-17T03:12:34.593Z,13.10
2018-10-17T03:15:03.464Z,14.33
2018-10-17T03:17:32.524Z,14.53
2018-10-17T03:20:01.608Z,14.20
2018-10-17T03:22:30.510Z,17.23
2018-10-17T03:24:59.713Z,15.57
2018-10-17T03:28:12.386Z,15.57
2018-10-17T03:30:41.539Z,15.43
2018-10-17T03:33:10.553Z,14.57
2018-10-17T03:35:39.830Z,14.73
2018-10-17T03:38:08.637Z,15.13
2018-10-17T03:40:37.607Z,15.63
2018-10-17T03:43:06.500Z,14.67
2018-10-17T03:45:35.498Z,14.10
2018-10-17T03:48:04.523Z,14.50
2018-10-17T03:50:33.514Z,13.53
2018-10-17T03:53:02.430Z,13.33
2018-10-17T03:55:31.184Z,13.73
2018-10-17T03:58:00.262Z,15.20
2018-10-17T04:00:28.995Z,14.67
2018-10-17T04:02:57.936Z,14.53
2018-10-17T04:05:26.576Z,14.47
2018-10-17T04:07:55.419Z,14.33
2018-10-17T04:10:24.358Z,14.40
2018-10-17T04:12:53.538Z,14.17
2018-10-17T04:15:22.394Z,14.30
2018-10-17T04:17:51.322Z,12.90
2018-10-17T04:20:20.126Z,13.13
2018-10-17T04:22:53.598Z,11.80
2018-10-17T04:25:22.449Z,12.03
2018-10-17T04:27:52.189Z,12.60
2018-10-17T04:30:21.064Z,12.87
2018-10-17T04:32:50.158Z,12.83
2018-10-17T04:35:19.112Z,12.80
2018-10-17T04:37:48.301Z,14.50
2018-10-17T04:40:17.073Z,13.37
2018-10-17T04:42:46.231Z,13.53
2018-10-17T04:45:15.187Z,14.23
2018-10-17T04:47:43.981Z,12.90
2018-10-17T04:50:12.901Z,13.37
2018-10-17T04:52:41.794Z,14.00
2018-10-17T04:55:11.277Z,16.07
2018-10-17T04:57:40.246Z,15.23
2018-10-17T05:00:11.580Z,16.53
2018-10-17T05:02:41.400Z,16.37
2018-10-17T05:05:10.283Z,19.35
2018-10-17T05:07:39.195Z,16.60
2018-10-17T05:10:07.773Z,17.43
2018-10-17T05:12:36.546Z,16.27
2018-10-17T05:15:05.414Z,15.27
2018-10-17T05:17:34.326Z,14.73
2018-10-17T05:20:03.218Z,13.33
2018-10-17T05:22:32.120Z,13.33
2018-10-17T05:25:00.923Z,13.10
2018-10-17T05:27:29.593Z,12.07
2018-10-17T05:29:58.475Z,12.27
2018-10-17T05:32:27.195Z,11.10
2018-10-17T05:34:55.914Z,12.03
2018-10-17T05:37:24.689Z,11.93
2018-10-17T05:39:53.247Z,11.40
2018-10-17T05:42:21.843Z,11.63
2018-10-17T05:44:50.455Z,12.93
2018-10-17T05:47:19.384Z,12.63
2018-10-17T05:49:48.138Z,11.03
2018-10-17T05:52:16.958Z,10.13
2018-10-17T05:54:45.819Z,9.70
2018-10-17T05:57:14.645Z,10.93
2018-10-17T05:59:43.363Z,10.13
2018-10-17T06:02:14.569Z,10.47
2018-10-17T06:04:43.253Z,9.63
2018-10-17T06:07:12.069Z,11.07
2018-10-17T06:09:40.768Z,11.37
2018-10-17T06:12:09.331Z,11.37
2018-10-17T06:14:38.128Z,11.10
2018-10-17T06:17:06.805Z,9.70
2018-10-17T06:19:35.472Z,11.00
2018-10-17T06:22:04.109Z,8.80
2018-10-17T06:24:32.804Z,8.40
2018-10-17T06:27:01.611Z,8.10
2018-10-17T06:29:30.399Z,8.80
2018-10-17T06:31:59.198Z,7.67
2018-10-17T06:34:28.029Z,8.80
2018-10-17T06:36:56.848Z,8.73
2018-10-17T06:39:25.672Z,10.63
2018-10-17T06:41:54.655Z,11.70
2018-10-17T06:44:23.469Z,12.20
2018-10-17T06:46:52.372Z,11.63
2018-10-17T06:49:21.221Z,11.50
2018-10-17T06:51:50.140Z,10.73
2018-10-17T06:54:18.833Z,10.93
2018-10-17T06:56:47.510Z,8.97
2018-10-17T06:59:16.417Z,9.50
2018-10-17T07:01:45.330Z,8.67
2018-10-17T07:04:13.932Z,8.77
2018-10-17T07:06:42.723Z,8.83
2018-10-17T07:09:11.397Z,8.80
2018-10-17T07:11:40.400Z,8.20
2018-10-17T07:14:09.137Z,9.30
2018-10-17T07:16:38.091Z,7.13
2018-10-17T07:19:07.238Z,9.10
2018-10-17T07:21:35.816Z,8.30
2018-10-17T07:24:04.868Z,8.40
2018-10-17T07:26:33.622Z,8.83
2018-10-17T07:29:02.352Z,7.87
2018-10-17T07:31:31.112Z,8.67
2018-10-17T07:34:00.031Z,9.23
2018-10-17T07:36:28.707Z,11.43
2018-10-17T07:38:57.595Z,11.27
2018-10-17T07:41:26.282Z,12.70
2018-10-17T07:43:55.195Z,13.03
2018-10-17T07:46:24.144Z,12.13
2018-10-17T07:48:52.958Z,12.33
2018-10-17T07:51:21.720Z,12.05
2018-10-17T07:53:50.364Z,9.43
2018-10-17T07:56:18.961Z,9.68
2018-10-17T07:58:47.778Z,7.65
2018-10-17T08:01:17.342Z,8.60
2018-10-17T08:03:46.202Z,10.18
2018-10-17T08:06:14.994Z,9.70
2018-10-17T08:08:43.705Z,9.28
2018-10-17T08:11:12.463Z,6.30
2018-10-17T08:13:41.072Z,5.20
2018-10-17T08:16:09.995Z,5.65
2018-10-17T08:18:38.705Z,5.33
2018-10-17T08:21:07.441Z,5.28
2018-10-17T08:23:36.293Z,4.90
2018-10-17T08:26:05.168Z,4.92
2018-10-17T08:28:33.893Z,5.10
2018-10-17T08:31:02.616Z,4.78
2018-10-17T08:33:31.383Z,5.33
2018-10-17T08:36:00.299Z,5.70
2018-10-17T08:38:28.758Z,5.47
2018-10-17T08:40:57.601Z,5.28
2018-10-17T08:43:26.320Z,5.12
2018-10-17T08:45:54.954Z,5.03
2018-10-17T08:48:23.653Z,5.47
2018-10-17T08:50:52.505Z,5.40
2018-10-17T08:53:21.184Z,6.07
2018-10-17T08:55:50.226Z,5.90
2018-10-17T08:58:18.901Z,6.10
2018-10-17T09:00:47.691Z,5.73
2018-10-17T09:03:16.580Z,6.23
2018-10-17T09:05:45.313Z,7.03
2018-10-17T09:08:14.131Z,5.93
2018-10-17T09:10:42.939Z,6.70
2018-10-17T09:13:11.812Z,6.33
2018-10-17T09:15:40.515Z,6.13
2018-10-17T09:18:09.396Z,6.70
2018-10-17T09:20:38.228Z,7.17
2018-10-17T09:23:06.682Z,6.70
2018-10-17T09:25:35.459Z,6.30
2018-10-17T09:28:04.110Z,7.13
2018-10-17T09:30:33.165Z,6.20
2018-10-17T09:33:01.680Z,6.13
2018-10-17T09:35:30.400Z,6.57
2018-10-17T09:37:59.075Z,6.27
2018-10-17T09:40:27.820Z,5.87
2018-10-17T09:42:56.556Z,6.60
2018-10-17T09:45:25.281Z,6.73
2018-10-17T09:47:54.089Z,6.70
2018-10-17T09:50:22.916Z,7.10
2018-10-17T09:52:51.803Z,7.03
2018-10-17T09:55:20.461Z,6.13
2018-10-17T09:57:49.358Z,7.03
2018-10-17T10:00:23.376Z,6.90
2018-10-17T10:02:52.704Z,6.87
2018-10-17T10:05:21.783Z,6.67
2018-10-17T10:07:50.759Z,6.60
2018-10-17T10:10:19.689Z,6.70
2018-10-17T10:12:48.437Z,6.67
2018-10-17T10:15:17.235Z,7.00
2018-10-17T10:17:45.974Z,8.30
2018-10-17T10:20:14.701Z,8.20
2018-10-17T10:22:43.360Z,7.15
2018-10-17T10:25:12.295Z,7.30
2018-10-17T10:27:41.017Z,7.78
2018-10-17T10:30:09.779Z,8.03
2018-10-17T10:32:38.500Z,7.45
2018-10-17T10:35:07.253Z,8.08
2018-10-17T10:37:36.015Z,7.57
2018-10-17T10:40:05.470Z,7.25
2018-10-17T10:42:34.083Z,7.30
2018-10-17T10:45:02.876Z,8.00
2018-10-17T10:47:31.734Z,7.70
2018-10-17T10:50:00.420Z,8.00
2018-10-17T10:52:29.147Z,8.08
2018-10-17T10:54:57.896Z,7.65
2018-10-17T10:57:26.677Z,7.33
2018-10-17T10:59:55.346Z,7.20
2018-10-17T11:02:24.230Z,7.12
2018-10-17T11:04:53.040Z,7.22
2018-10-17T11:07:21.748Z,7.45
2018-10-17T11:09:50.446Z,6.87
2018-10-17T11:12:19.337Z,7.20
2018-10-17T11:14:48.153Z,7.60
2018-10-17T11:17:16.689Z,7.37
2018-10-17T11:19:45.377Z,6.65
2018-10-17T11:22:14.020Z,7.25
2018-10-17T11:24:42.993Z,6.25
2018-10-17T11:27:11.882Z,6.60
2018-10-17T11:29:40.554Z,6.35
2018-10-17T11:32:09.300Z,6.28
2018-10-17T11:34:38.152Z,7.37
2018-10-17T11:37:06.947Z,6.15
2018-10-17T11:39:35.837Z,10.93
2018-10-17T11:42:04.596Z,6.40
2018-10-17T11:44:33.568Z,6.33
2018-10-17T11:47:02.161Z,6.78
2018-10-17T11:49:30.867Z,6.45
2018-10-17T11:51:59.488Z,6.10
2018-10-17T11:54:28.348Z,6.75
2018-10-17T11:56:57.259Z,6.40
2018-10-17T11:59:26.065Z,7.53
2018-10-17T12:01:54.992Z,7.33
2018-10-17T12:04:24.082Z,6.72
2018-10-17T12:06:52.646Z,6.87
2018-10-17T12:09:21.250Z,7.30
2018-10-17T12:11:50.144Z,6.65
2018-10-17T12:14:18.785Z,6.97
2018-10-17T12:16:47.679Z,7.00
2018-10-17T12:19:16.374Z,6.67
2018-10-17T12:21:45.144Z,6.30
2018-10-17T12:24:13.843Z,6.60
2018-10-17T12:26:42.781Z,6.65
2018-10-17T12:29:11.654Z,7.27
2018-10-17T12:31:40.339Z,6.23
2018-10-17T12:34:09.028Z,7.00
2018-10-17T12:36:37.940Z,6.63
2018-10-17T12:39:09.936Z,6.30
2018-10-17T12:41:38.743Z,6.80
2018-10-17T12:44:07.618Z,6.73
2018-10-17T12:46:36.406Z,6.70
2018-10-17T12:49:05.255Z,6.37
2018-10-17T12:51:34.258Z,6.57
2018-10-17T12:54:02.940Z,5.83
2018-10-17T12:56:31.856Z,6.40
2018-10-17T12:59:00.512Z,6.40
2018-10-17T13:01:29.479Z,6.50
2018-10-17T13:03:58.152Z,6.33
2018-10-17T13:06:27.068Z,6.20
2018-10-17T13:08:55.785Z,6.07
2018-10-17T13:11:24.677Z,6.10
2018-10-17T13:13:53.310Z,6.03
2018-10-17T13:16:22.160Z,5.87
2018-10-17T13:18:50.905Z,6.30
2018-10-17T13:21:19.795Z,6.07
2018-10-17T13:23:48.606Z,6.50
2018-10-17T13:26:17.509Z,5.60
2018-10-17T13:28:46.265Z,5.90
2018-10-17T13:31:14.962Z,6.23
2018-10-17T13:33:43.797Z,6.07
2018-10-17T13:36:12.418Z,7.40
2018-10-17T13:38:41.183Z,6.10
2018-10-17T13:41:09.932Z,6.10
2018-10-17T13:43:38.596Z,6.30
2018-10-17T13:46:07.374Z,6.30
2018-10-17T13:48:36.132Z,6.07
2018-10-17T13:51:04.796Z,6.00
2018-10-17T13:53:33.550Z,5.30
2018-10-17T13:56:02.345Z,6.07
2018-10-17T13:58:31.422Z,5.87
2018-10-17T14:01:00.132Z,5.60
2018-10-17T14:03:28.992Z,5.43
2018-10-17T14:05:57.656Z,5.10
2018-10-17T14:08:26.558Z,5.73
2018-10-17T14:10:55.418Z,6.10
2018-10-17T14:13:24.425Z,5.63
2018-10-17T14:15:53.324Z,4.90
2018-10-17T14:18:22.110Z,5.87
2018-10-17T14:20:50.921Z,5.60
2018-10-17T14:23:19.697Z,5.57
2018-10-17T14:25:48.452Z,5.80
2018-10-17T14:28:18.027Z,5.17
2018-10-17T14:30:46.963Z,5.53
2018-10-17T14:33:15.629Z,5.13
2018-10-17T14:35:44.268Z,5.33
2018-10-17T14:38:13.029Z,5.17
2018-10-17T14:40:41.843Z,5.60
2018-10-17T14:43:10.583Z,6.13
2018-10-17T14:45:39.348Z,6.40
2018-10-17T14:48:08.204Z,5.80
2018-10-17T14:50:36.860Z,5.97
2018-10-17T14:53:05.901Z,6.60
2018-10-17T14:55:34.638Z,5.50
2018-10-17T14:58:03.638Z,6.03
2018-10-17T15:00:32.427Z,6.30
2018-10-17T15:03:01.260Z,5.90
2018-10-17T15:05:29.996Z,6.30
2018-10-17T15:07:58.768Z,6.57
2018-10-17T15:10:27.713Z,6.90
2018-10-17T15:12:56.398Z,7.30
2018-10-17T15:15:25.166Z,6.43
2018-10-17T15:17:53.869Z,7.80
2018-10-17T15:20:22.638Z,8.67
2018-10-17T15:22:51.407Z,6.70
2018-10-17T15:25:20.303Z,7.43
2018-10-17T15:27:49.246Z,7.97
2018-10-17T15:30:17.910Z,8.30
2018-10-17T15:32:46.719Z,7.63
2018-10-17T15:35:15.307Z,6.40
2018-10-17T15:37:44.015Z,6.63
2018-10-17T15:40:12.697Z,7.67
2018-10-17T15:42:41.488Z,7.63
2018-10-17T15:45:10.352Z,6.73
2018-10-17T15:47:39.058Z,6.93
2018-10-17T15:50:07.724Z,7.13
2018-10-17T15:52:36.453Z,7.20
2018-10-17T15:55:06.378Z,7.80
2018-10-17T15:57:35.170Z,7.33
2018-10-17T16:00:04.111Z,7.77
2018-10-17T16:02:32.887Z,7.70
2018-10-17T16:05:01.688Z,7.77
2018-10-17T16:07:30.408Z,7.93
2018-10-17T16:09:59.048Z,8.50
2018-10-17T16:12:27.661Z,8.53
2018-10-17T16:14:56.354Z,8.93
2018-10-17T16:17:25.087Z,9.60
2018-10-17T16:19:53.853Z,9.50
2018-10-17T16:22:22.686Z,9.70
2018-10-17T16:24:51.256Z,8.40
2018-10-17T16:27:20.045Z,9.13
2018-10-17T16:29:49.072Z,8.67
2018-10-17T16:32:17.870Z,9.17
2018-10-17T16:34:46.544Z,9.10
2018-10-17T16:37:15.304Z,9.60
2018-10-17T16:39:43.866Z,9.30
2018-10-17T16:42:12.728Z,9.37
2018-10-17T16:44:41.457Z,8.27
2018-10-17T16:47:10.149Z,9.07
2018-10-17T16:49:38.831Z,8.93
2018-10-17T16:52:08.281Z,8.30
2018-10-17T16:54:37.217Z,8.83
2018-10-17T16:57:07.709Z,8.97
2018-10-17T16:59:36.396Z,9.10
2018-10-17T17:02:05.462Z,9.70
2018-10-17T17:04:34.521Z,9.50
2018-10-17T17:07:03.273Z,8.93
2018-10-17T17:09:31.943Z,9.70
2018-10-17T17:12:00.871Z,9.43
2018-10-17T17:14:29.560Z,9.43
2018-10-17T17:16:58.288Z,9.93
2018-10-17T17:19:27.007Z,10.10
2018-10-17T17:21:55.796Z,10.50
2018-10-17T17:24:24.484Z,10.30
2018-10-17T17:26:53.356Z,10.77
2018-10-17T17:29:22.123Z,10.30
2018-10-17T17:31:51.105Z,10.40
2018-10-17T17:34:19.696Z,10.80
2018-10-17T17:36:48.437Z,11.07
2018-10-17T17:39:17.291Z,10.77
2018-10-17T17:41:46.116Z,10.87
2018-10-17T17:44:14.779Z,12.10
2018-10-17T17:46:43.618Z,11.27
2018-10-17T17:49:12.340Z,11.40
2018-10-17T17:51:41.008Z,12.80
2018-10-17T17:54:09.804Z,12.23
2018-10-17T17:56:38.716Z,12.33
2018-10-17T17:59:07.449Z,12.10
2018-10-17T18:01:36.291Z,12.87
2018-10-17T18:04:05.228Z,12.60
2018-10-17T18:06:34.232Z,11.77
2018-10-17T18:09:04.555Z,13.37
2018-10-17T18:11:33.303Z,12.27
2018-10-17T18:14:02.172Z,13.20
2018-10-17T18:16:30.892Z,12.30
2018-10-17T18:18:59.633Z,12.43
2018-10-17T18:21:28.402Z,12.47
2018-10-17T18:23:57.019Z,12.33
2018-10-17T18:26:25.912Z,24.40
2018-10-17T18:28:54.629Z,73.03
2018-10-17T18:31:23.508Z,37.90
2018-10-17T18:33:52.796Z,16.03
2018-10-17T18:36:22.050Z,19.87
2018-10-17T18:38:51.121Z,14.67
2018-10-17T18:41:19.744Z,14.83
2018-10-17T18:43:48.562Z,15.73
2018-10-17T18:46:17.323Z,15.73
2018-10-17T18:48:46.176Z,16.17
2018-10-17T18:51:14.845Z,13.47
2018-10-17T18:53:43.691Z,14.53
2018-10-17T18:56:12.654Z,16.67
2018-10-17T18:58:41.509Z,15.53
2018-10-17T19:01:10.195Z,16.70
2018-10-17T19:03:38.908Z,16.97
2018-10-17T19:06:07.468Z,16.43
2018-10-17T19:08:36.209Z,17.83
2018-10-17T19:11:05.317Z,18.87
2018-10-17T19:13:34.004Z,20.27
2018-10-17T19:16:02.905Z,20.30
2018-10-17T19:18:31.480Z,24.40
2018-10-17T19:21:00.395Z,25.63
2018-10-17T19:23:29.195Z,23.40
2018-10-17T19:25:58.020Z,24.90
2018-10-17T19:28:26.598Z,25.83
2018-10-17T19:30:55.372Z,24.87
2018-10-17T19:33:24.058Z,24.70
2018-10-17T19:35:52.706Z,23.60
2018-10-17T19:38:21.468Z,22.20
2018-10-17T19:40:50.203Z,21.27
2018-10-17T19:43:18.808Z,22.73
2018-10-17T19:45:47.514Z,23.57
2018-10-17T19:48:16.284Z,23.57
2018-10-17T19:50:45.105Z,25.87
2018-10-17T19:53:13.978Z,32.20
2018-10-17T19:55:42.874Z,29.13
2018-10-17T19:58:11.761Z,28.50
2018-10-17T20:00:40.434Z,23.43
2018-10-17T20:03:09.243Z,23.10
2018-10-17T20:05:37.985Z,18.87
2018-10-17T20:08:06.796Z,17.13
2018-10-17T20:10:35.481Z,17.17
2018-10-17T20:13:04.188Z,15.50
2018-10-17T20:15:32.919Z,15.47
2018-10-17T20:18:01.605Z,15.83
2018-10-17T20:20:30.549Z,15.50
2018-10-17T20:22:59.254Z,15.93
2018-10-17T20:25:28.029Z,15.13
2018-10-17T20:27:56.667Z,15.43
2018-10-17T20:30:25.156Z,14.13
2018-10-17T20:32:54.280Z,14.40
2018-10-17T20:35:22.970Z,13.53
2018-10-17T20:37:51.851Z,13.37
2018-10-17T20:40:20.562Z,13.50
2018-10-17T20:42:49.164Z,15.17
2018-10-17T20:45:17.949Z,15.10
2018-10-17T20:47:46.659Z,14.27
2018-10-17T20:50:15.395Z,15.87
2018-10-17T20:52:44.203Z,15.30
2018-10-17T20:55:12.823Z,16.10
2018-10-17T20:57:41.549Z,17.30
2018-10-17T21:00:10.376Z,16.07
2018-10-17T21:02:39.027Z,13.87
2018-10-17T21:05:07.947Z,14.10
2018-10-17T21:07:36.597Z,13.70
2018-10-17T21:10:05.999Z,14.10
2018-10-17T21:12:34.717Z,14.73
2018-10-17T21:15:03.436Z,15.03
2018-10-17T21:17:32.211Z,13.67
2018-10-17T21:20:00.942Z,14.77
2018-10-17T21:22:29.623Z,14.00
2018-10-17T21:24:58.518Z,13.70
2018-10-17T21:27:27.460Z,14.97
2018-10-17T21:29:56.298Z,15.30
2018-10-17T21:32:24.951Z,15.77
2018-10-17T21:34:53.715Z,14.47
2018-10-17T21:37:22.408Z,14.67
2018-10-17T21:39:51.110Z,16.03
2018-10-17T21:42:20.061Z,18.77
2018-10-17T21:44:48.922Z,18.13
2018-10-17T21:47:17.751Z,19.67
2018-10-17T21:49:46.842Z,20.13
2018-10-17T21:52:15.694Z,17.10
2018-10-17T21:54:44.517Z,18.13
2018-10-17T21:57:13.454Z,16.87
2018-10-17T21:59:42.343Z,16.90
2018-10-17T22:02:11.328Z,15.97
2018-10-17T22:04:40.075Z,17.07
2018-10-17T22:07:08.964Z,17.50
2018-10-17T22:09:37.995Z,15.93
2018-10-17T22:12:07.014Z,16.47
2018-10-17T22:14:36.164Z,15.77
2018-10-17T22:17:06.869Z,16.23
2018-10-17T22:19:37.169Z,14.73
2018-10-17T22:22:07.009Z,13.63
2018-10-17T22:24:35.815Z,12.80
2018-10-17T22:27:04.703Z,12.93
2018-10-17T22:29:33.551Z,13.10
2018-10-17T22:32:02.471Z,11.83
2018-10-17T22:34:31.118Z,11.57
2018-10-17T22:37:00.110Z,11.57
2018-10-17T22:39:28.919Z,12.80
2018-10-17T22:41:57.772Z,12.37
2018-10-17T22:44:26.703Z,10.87
2018-10-17T22:46:55.589Z,11.47
2018-10-17T22:49:24.501Z,11.27
2018-10-17T22:51:53.369Z,11.10
2018-10-17T22:54:22.405Z,11.37
2018-10-17T22:56:51.311Z,11.07
2018-10-17T22:59:20.123Z,10.97
2018-10-17T23:01:49.097Z,10.50
2018-10-17T23:04:17.992Z,11.40
2018-10-17T23:06:46.905Z,10.93
2018-10-17T23:09:15.837Z,9.83
2018-10-17T23:11:51.467Z,10.27
2018-10-17T23:14:20.392Z,10.00
2018-10-17T23:16:49.235Z,10.87
2018-10-17T23:19:18.064Z,10.77
2018-10-17T23:21:47.000Z,10.63
2018-10-17T23:24:15.763Z,10.87
2018-10-17T23:26:44.576Z,10.30
2018-10-17T23:29:13.426Z,10.03
2018-10-17T23:31:42.223Z,10.27
2018-10-17T23:34:11.005Z,11.13
2018-10-17T23:36:39.877Z,10.47
2018-10-17T23:39:09.643Z,9.50
2018-10-17T23:41:39.123Z,10.03
2018-10-17T23:44:07.955Z,10.10
2018-10-17T23:46:36.776Z,10.60
2018-10-17T23:49:05.658Z,10.63
2018-10-17T23:51:34.532Z,10.67
2018-10-17T23:54:03.528Z,10.03
2018-10-17T23:56:32.242Z,9.27
2018-10-17T23:59:01.284Z,9.83
